createdAt,value
2019-06-10T00:02:21.801Z,4.63
2019-06-10T00:04:51.192Z,7.07
2019-06-10T00:07:21.083Z,6.43
2019-06-10T00:09:51.229Z,7.53
2019-06-10T00:12:21.051Z,6.93
2019-06-10T00:14:51.185Z,6.73
2019-06-10T00:17:21.344Z,5.93
2019-06-10T00:19:51.267Z,8.53
2019-06-10T00:22:21.552Z,6.63
2019-06-10T00:24:52.247Z,7.27
2019-06-10T00:27:21.849Z,6.60
2019-06-10T00:29:51.363Z,5.70
2019-06-10T00:32:21.567Z,8.47
2019-06-10T00:34:51.097Z,7.10
2019-06-10T00:37:21.235Z,6.53
2019-06-10T00:39:51.355Z,5.63
2019-06-10T00:42:21.340Z,6.27
2019-06-10T00:44:51.108Z,6.07
2019-06-10T00:47:21.181Z,5.37
2019-06-10T00:49:51.426Z,7.40
2019-06-10T00:52:21.807Z,8.50
2019-06-10T00:54:51.904Z,5.27
2019-06-10T00:57:21.438Z,7.03
2019-06-10T00:59:50.947Z,7.53
2019-06-10T01:02:21.337Z,7.47
2019-06-10T01:04:53.093Z,7.47
2019-06-10T01:07:22.514Z,6.97
2019-06-10T01:09:51.963Z,7.80
2019-06-10T01:12:21.397Z,6.33
2019-06-10T01:14:51.693Z,6.37
2019-06-10T01:17:21.460Z,7.37
2019-06-10T01:19:50.985Z,6.67
2019-06-10T01:22:21.294Z,7.10
2019-06-10T01:24:51.150Z,7.53
2019-06-10T01:27:21.191Z,7.20
2019-06-10T01:29:51.186Z,6.00
2019-06-10T01:32:21.670Z,5.67
2019-06-10T01:34:51.258Z,5.23
2019-06-10T01:37:21.756Z,5.27
2019-06-10T01:39:51.641Z,4.80
2019-06-10T01:42:21.598Z,5.17
2019-06-10T01:44:51.140Z,6.00
2019-06-10T01:47:21.595Z,5.53
2019-06-10T01:49:51.754Z,5.77
2019-06-10T01:52:21.370Z,7.20
2019-06-10T01:54:51.512Z,7.40
2019-06-10T01:57:21.965Z,7.30
2019-06-10T01:59:51.588Z,9.00
2019-06-10T02:02:24.443Z,6.43
2019-06-10T02:08:35.738Z,6.20
2019-06-10T02:11:05.258Z,6.90
2019-06-10T02:13:34.582Z,6.17
2019-06-10T02:16:04.580Z,5.90
2019-06-10T02:18:33.973Z,8.30
2019-06-10T02:21:03.948Z,5.47
2019-06-10T02:23:34.330Z,7.53
2019-06-10T02:26:03.778Z,5.73
2019-06-10T02:28:33.188Z,6.80
2019-06-10T02:31:03.853Z,7.13
2019-06-10T02:33:36.601Z,6.03
2019-06-10T02:36:05.009Z,6.47
2019-06-10T02:38:39.269Z,6.40
2019-06-10T02:41:05.717Z,6.77
2019-06-10T02:43:37.741Z,5.27
2019-06-10T02:46:07.467Z,6.10
2019-06-10T02:48:36.823Z,7.53
2019-06-10T02:51:08.559Z,7.60
2019-06-10T02:53:38.182Z,6.00
2019-06-10T02:56:08.636Z,7.27
2019-06-10T02:58:40.075Z,5.50
2019-06-10T03:01:09.661Z,8.47
2019-06-10T03:03:44.321Z,5.80
2019-06-10T03:06:13.686Z,8.40
2019-06-10T03:08:43.662Z,6.57
2019-06-10T03:11:14.160Z,7.23
2019-06-10T03:13:43.869Z,8.70
2019-06-10T03:16:47.784Z,8.73
2019-06-10T03:19:37.036Z,5.53
2019-06-10T03:21:52.043Z,7.50
2019-06-10T03:24:22.395Z,5.83
2019-06-10T03:26:52.349Z,9.20
2019-06-10T03:29:23.734Z,7.97
2019-06-10T03:31:55.361Z,5.60
2019-06-10T03:34:33.546Z,6.57
2019-06-10T03:36:55.903Z,6.63
2019-06-10T03:39:28.428Z,7.00
2019-06-10T03:41:57.001Z,6.17
2019-06-10T03:44:27.127Z,7.13
2019-06-10T03:46:57.852Z,6.40
2019-06-10T03:49:28.776Z,6.37
2019-06-10T03:52:19.304Z,6.63
2019-06-10T03:54:52.467Z,5.53
2019-06-10T03:57:25.664Z,5.07
2019-06-10T03:59:55.228Z,6.27
2019-06-10T04:02:25.587Z,7.37
2019-06-10T04:04:55.837Z,6.00
2019-06-10T04:07:28.275Z,8.70
2019-06-10T04:09:56.363Z,6.27
2019-06-10T04:12:27.526Z,7.20
2019-06-10T04:14:56.933Z,8.20
2019-06-10T04:17:27.343Z,5.20
2019-06-10T04:20:09.365Z,5.90
2019-06-10T04:22:28.751Z,8.50
2019-06-10T04:24:58.581Z,9.80
2019-06-10T04:27:28.496Z,5.23
2019-06-10T04:29:58.339Z,9.63
2019-06-10T04:32:43.983Z,9.47
2019-06-10T04:35:14.077Z,6.50
2019-06-10T04:37:43.578Z,6.27
2019-06-10T04:40:13.600Z,5.27
2019-06-10T04:42:43.620Z,6.27
2019-06-10T04:45:13.490Z,5.17
2019-06-10T04:47:43.357Z,7.50
2019-06-10T04:50:24.911Z,6.27
2019-06-10T04:52:46.014Z,5.60
2019-06-10T04:55:15.420Z,6.17
2019-06-10T04:57:44.826Z,6.53
2019-06-10T05:00:14.959Z,4.80
2019-06-10T05:02:44.445Z,5.60
2019-06-10T05:08:43.339Z,6.13
2019-06-10T05:11:13.048Z,7.10
2019-06-10T05:13:43.189Z,6.63
2019-06-10T05:16:12.906Z,6.07
2019-06-10T05:18:42.633Z,5.40
2019-06-10T05:21:13.037Z,5.17
2019-06-10T05:23:43.207Z,6.17
2019-06-10T05:26:13.436Z,7.60
2019-06-10T05:28:43.411Z,7.00
2019-06-10T05:31:13.334Z,7.33
2019-06-10T05:33:42.861Z,5.17
2019-06-10T05:36:13.271Z,6.20
2019-06-10T05:38:43.673Z,7.47
2019-06-10T05:41:13.566Z,5.93
2019-06-10T05:43:43.251Z,5.43
2019-06-10T05:46:13.646Z,7.50
2019-06-10T05:48:43.832Z,7.87
2019-06-10T05:51:13.628Z,4.20
2019-06-10T05:53:45.768Z,5.57
2019-06-10T05:56:14.401Z,6.17
2019-06-10T05:58:43.871Z,5.53
2019-06-10T06:01:13.463Z,5.40
2019-06-10T06:03:43.957Z,6.60
2019-06-10T06:06:13.634Z,8.50
2019-06-10T06:09:04.828Z,6.13
2019-06-10T06:11:35.350Z,7.13
2019-06-10T06:14:06.446Z,4.87
2019-06-10T07:17:45.461Z,7.27
2019-06-10T07:20:19.660Z,6.30
2019-06-10T07:22:49.099Z,7.30
2019-06-10T07:25:18.617Z,8.53
2019-06-10T07:27:47.977Z,6.67
2019-06-10T07:30:23.526Z,5.63
2019-06-10T07:32:52.945Z,6.97
2019-06-10T07:35:25.464Z,7.20
2019-06-10T07:37:55.367Z,6.03
2019-06-10T07:40:25.104Z,6.97
2019-06-10T07:42:54.404Z,5.53
2019-06-10T07:45:24.085Z,5.07
2019-06-10T07:47:54.041Z,5.90
2019-06-10T07:50:23.506Z,8.07
2019-06-10T07:52:53.033Z,5.97
2019-06-10T07:55:22.423Z,8.60
2019-06-10T07:57:53.315Z,7.53
2019-06-10T08:00:24.097Z,4.23
2019-06-10T08:02:53.422Z,5.90
2019-06-10T08:05:23.518Z,5.10
2019-06-10T08:07:54.783Z,5.37
2019-06-10T08:10:25.690Z,4.80
2019-06-10T08:12:55.466Z,9.23
2019-06-10T08:15:24.823Z,4.70
2019-06-10T08:17:56.080Z,3.27
2019-06-10T08:20:48.078Z,3.70
2019-06-10T08:23:19.400Z,4.50
2019-06-10T08:25:56.602Z,4.70
2019-06-10T08:28:22.927Z,4.73
2019-06-10T08:30:53.149Z,3.83
2019-06-10T08:33:23.008Z,4.43
2019-06-10T08:35:59.531Z,5.30
2019-06-10T08:38:23.371Z,5.87
2019-06-10T08:40:52.670Z,3.50
2019-06-10T08:43:22.600Z,5.77
2019-06-10T08:45:52.893Z,3.63
2019-06-10T08:48:22.864Z,5.23
2019-06-10T08:50:53.072Z,5.17
2019-06-10T08:53:22.921Z,7.17
2019-06-10T08:55:53.494Z,4.03
2019-06-10T08:58:23.243Z,5.33
2019-06-10T09:00:53.766Z,4.90
2019-06-10T09:03:23.450Z,4.27
2019-06-10T09:05:54.418Z,7.10
2019-06-10T09:08:23.874Z,4.97
2019-06-10T09:10:55.008Z,4.80
2019-06-10T09:13:24.623Z,5.57
2019-06-10T09:16:10.055Z,4.60
2019-06-10T09:18:24.917Z,5.13
2019-06-10T09:20:56.132Z,4.70
2019-06-10T09:23:25.794Z,3.80
2019-06-10T09:25:57.708Z,6.87
2019-06-10T09:28:27.215Z,5.77
2019-06-10T09:30:59.404Z,4.13
2019-06-10T09:33:28.004Z,5.30
2019-06-10T09:35:57.747Z,4.47
2019-06-10T09:38:28.117Z,4.53
2019-06-10T09:41:01.834Z,6.80
2019-06-10T09:43:28.287Z,3.43
2019-06-10T09:45:57.659Z,5.73
2019-06-10T09:48:27.232Z,6.03
2019-06-10T09:50:58.532Z,6.43
2019-06-10T09:53:41.466Z,5.07
2019-06-10T09:56:05.811Z,4.07
2019-06-10T09:58:39.102Z,4.27
2019-06-10T10:01:13.406Z,4.00
2019-06-10T10:03:47.749Z,5.50
2019-06-10T10:06:18.272Z,4.27
2019-06-10T10:08:58.422Z,5.17
2019-06-10T10:11:28.484Z,4.10
2019-06-10T10:13:59.582Z,6.67
2019-06-10T10:16:33.891Z,5.70
2019-06-10T10:19:06.032Z,4.13
2019-06-10T10:21:41.229Z,4.03
2019-06-10T10:24:15.404Z,5.03
2019-06-10T10:26:50.922Z,3.73
2019-06-10T10:29:23.404Z,3.97
2019-06-10T10:32:05.016Z,5.57
2019-06-10T10:34:35.542Z,6.07
2019-06-10T10:37:12.247Z,5.43
2019-06-10T10:39:44.684Z,5.13
2019-06-10T10:42:18.051Z,9.23
2019-06-10T10:44:53.018Z,5.03
2019-06-10T10:47:27.658Z,5.27
2019-06-10T10:49:57.662Z,5.07
2019-06-10T10:52:33.047Z,5.20
2019-06-10T10:55:06.820Z,3.90
2019-06-10T10:57:38.945Z,5.30
2019-06-10T11:00:12.487Z,3.67
2019-06-10T11:02:51.466Z,6.63
2019-06-10T11:05:46.042Z,5.00
2019-06-10T11:08:16.898Z,5.07
2019-06-10T11:10:49.549Z,5.60
2019-06-10T11:13:25.532Z,4.23
2019-06-10T11:15:58.417Z,4.63
2019-06-10T11:18:29.990Z,5.05
2019-06-10T11:21:05.166Z,3.22
2019-06-10T11:23:38.025Z,7.03
2019-06-10T11:26:12.179Z,5.65
2019-06-10T11:29:02.952Z,6.87
2019-06-10T11:31:35.555Z,5.78
2019-06-10T11:34:10.109Z,3.77
2019-06-10T11:36:42.414Z,3.00
2019-06-10T11:39:13.319Z,3.40
2019-06-10T11:41:46.614Z,3.63
2019-06-10T11:44:28.411Z,3.67
2019-06-10T11:46:59.729Z,3.58
2019-06-10T11:49:32.971Z,5.30
2019-06-10T11:52:05.217Z,5.77
2019-06-10T11:54:53.649Z,6.08
2019-06-10T11:57:12.531Z,5.47
2019-06-10T11:59:48.018Z,5.63
2019-06-10T12:02:25.250Z,4.27
2019-06-10T12:05:00.553Z,4.47
2019-06-10T12:07:33.199Z,5.33
2019-06-10T12:10:06.845Z,5.70
2019-06-10T12:12:43.195Z,6.17
2019-06-10T12:15:15.462Z,4.97
2019-06-10T12:17:55.613Z,5.03
2019-06-10T12:20:28.385Z,4.30
2019-06-10T12:23:04.332Z,5.50
2019-06-10T12:25:39.281Z,3.47
2019-06-10T12:28:08.553Z,3.95
2019-06-10T12:30:42.324Z,5.08
2019-06-10T12:33:21.339Z,4.97
2019-06-10T12:35:48.434Z,4.87
2019-06-10T12:38:22.769Z,5.37
2019-06-10T12:40:58.960Z,3.67
2019-06-10T12:43:32.776Z,3.55
2019-06-10T12:46:07.128Z,4.47
2019-06-10T12:48:39.113Z,3.47
2019-06-10T12:51:14.867Z,4.20
2019-06-10T12:53:50.187Z,4.47
2019-06-10T12:56:22.885Z,4.03
2019-06-10T12:58:54.598Z,4.62
2019-06-10T13:01:25.139Z,3.37
2019-06-10T13:03:57.535Z,4.00
2019-06-10T13:06:35.258Z,3.85
2019-06-10T13:09:08.264Z,3.50
2019-06-10T13:11:39.333Z,4.53
2019-06-10T13:14:13.064Z,3.80
2019-06-10T13:16:48.505Z,3.90
2019-06-10T13:19:23.009Z,4.67
2019-06-10T13:21:59.580Z,4.25
2019-06-10T13:24:33.882Z,4.80
2019-06-10T13:27:25.683Z,3.77
2019-06-10T13:29:57.853Z,4.72
2019-06-10T13:32:28.725Z,4.78
2019-06-10T13:35:04.450Z,7.12
2019-06-10T13:37:35.231Z,3.95
2019-06-10T13:40:10.717Z,3.75
2019-06-10T13:42:42.675Z,3.50
2019-06-10T13:45:16.132Z,4.62
2019-06-10T13:47:46.924Z,3.00
2019-06-10T13:50:22.076Z,4.03
2019-06-10T13:52:55.585Z,3.33
2019-06-10T13:55:27.948Z,3.30
2019-06-10T13:57:57.189Z,3.15
2019-06-10T14:00:40.649Z,3.83
2019-06-10T14:02:57.657Z,4.00
2019-06-10T14:05:26.887Z,3.42
2019-06-10T14:07:56.090Z,3.70
2019-06-10T14:10:25.851Z,3.25
2019-06-10T14:12:55.080Z,5.97
2019-06-10T14:15:24.442Z,4.10
2019-06-10T14:17:54.093Z,3.80
2019-06-10T14:20:23.426Z,3.58
2019-06-10T14:22:53.036Z,5.28
2019-06-10T14:25:23.554Z,3.95
2019-06-10T14:27:53.361Z,7.25
2019-06-10T14:30:26.767Z,3.12
2019-06-10T14:32:55.984Z,5.37
2019-06-10T14:35:26.913Z,5.22
2019-06-10T14:37:56.755Z,4.83
2019-06-10T14:40:26.112Z,6.75
2019-06-10T14:42:55.468Z,4.37
2019-06-10T14:45:32.524Z,4.53
2019-06-10T14:48:02.869Z,5.33
2019-06-10T14:50:32.780Z,4.90
2019-06-10T14:53:02.363Z,5.47
2019-06-10T14:55:33.988Z,6.00
2019-06-10T14:58:03.758Z,3.80
2019-06-10T15:00:33.466Z,4.80
2019-06-10T15:03:05.687Z,3.65
2019-06-10T15:05:34.519Z,3.27
2019-06-10T15:08:03.941Z,4.70
2019-06-10T15:10:33.272Z,4.72
2019-06-10T15:13:03.435Z,3.35
2019-06-10T15:15:33.087Z,4.45
2019-06-10T15:18:03.018Z,3.70
2019-06-10T15:20:33.515Z,4.80
2019-06-10T15:23:03.764Z,6.00
2019-06-10T15:25:49.138Z,3.75
2019-06-10T15:28:04.600Z,5.37
2019-06-10T15:30:34.996Z,3.92
2019-06-10T15:33:04.306Z,3.22
2019-06-10T15:35:33.756Z,3.65
2019-06-10T15:38:18.122Z,3.45
2019-06-10T15:41:12.990Z,4.60
2019-06-10T15:43:48.034Z,3.65
2019-06-10T15:46:19.544Z,4.97
2019-06-10T15:48:53.895Z,3.35
2019-06-10T15:51:25.769Z,4.97
2019-06-10T15:53:55.391Z,4.40
2019-06-10T15:56:45.656Z,4.72
2019-06-10T15:59:21.387Z,5.12
2019-06-10T16:02:09.447Z,4.17
2019-06-10T16:04:43.389Z,6.58
2019-06-10T16:07:25.462Z,3.40
2019-06-10T16:10:27.946Z,4.83
2019-06-10T16:12:58.070Z,6.83
2019-06-10T16:15:32.893Z,3.60
2019-06-10T16:18:04.929Z,5.22
2019-06-10T16:20:37.976Z,4.37
2019-06-10T16:23:13.852Z,3.85
2019-06-10T16:25:46.235Z,3.45
2019-06-10T16:36:21.855Z,3.45
2019-06-10T16:38:55.246Z,4.57
2019-06-10T16:41:47.463Z,4.70
2019-06-10T16:44:27.758Z,3.87
2019-06-10T16:47:19.180Z,3.20
2019-06-10T16:49:52.152Z,4.03
2019-06-10T16:52:27.509Z,4.43
2019-06-10T16:54:58.342Z,2.97
2019-06-10T16:57:27.889Z,3.20
2019-06-10T16:59:59.836Z,3.57
2019-06-10T17:02:33.023Z,3.20
2019-06-10T17:05:03.174Z,3.00
2019-06-10T17:07:33.726Z,3.53
2019-06-10T17:10:04.147Z,4.10
2019-06-10T17:12:35.046Z,3.80
2019-06-10T17:15:14.616Z,4.27
2019-06-10T17:17:43.984Z,3.60
2019-06-10T17:20:14.109Z,4.00
2019-06-10T17:22:44.968Z,3.67
2019-06-10T17:25:14.637Z,4.67
2019-06-10T17:27:43.897Z,5.13
2019-06-10T17:30:13.385Z,3.70
2019-06-10T17:32:44.180Z,3.30
2019-06-10T17:35:13.621Z,3.73
2019-06-10T17:37:43.238Z,4.33
2019-06-10T17:40:13.020Z,5.10
2019-06-10T17:42:42.862Z,3.33
2019-06-10T17:45:12.794Z,5.67
2019-06-10T17:47:42.793Z,3.70
2019-06-10T17:50:12.627Z,5.90
2019-06-10T17:52:42.704Z,3.40
2019-06-10T17:55:12.595Z,3.47
2019-06-10T17:57:42.983Z,3.23
2019-06-10T18:00:14.873Z,5.80
2019-06-10T18:02:59.454Z,3.60
2019-06-10T18:05:29.326Z,6.13
2019-06-10T18:07:58.844Z,5.73
2019-06-10T18:10:28.136Z,4.87
2019-06-10T18:13:10.172Z,4.57
2019-06-10T18:15:28.344Z,4.53
2019-06-10T18:17:58.047Z,4.10
2019-06-10T18:20:27.254Z,5.23
2019-06-10T18:22:57.648Z,5.30
2019-06-10T18:25:26.844Z,4.00
2019-06-10T18:27:56.359Z,4.07
2019-06-10T18:30:27.153Z,4.73
2019-06-10T18:32:56.614Z,4.40
2019-06-10T18:35:27.782Z,3.47
2019-06-10T18:38:02.320Z,3.23
2019-06-10T18:40:33.554Z,3.67
2019-06-10T18:43:03.185Z,4.03
2019-06-10T18:45:37.810Z,4.40
2019-06-10T18:48:06.893Z,5.67
2019-06-10T18:50:38.415Z,3.57
2019-06-10T18:53:12.816Z,5.47
2019-06-10T18:55:43.602Z,5.77
2019-06-10T18:58:13.468Z,5.60
2019-06-10T19:00:58.789Z,4.10
2019-06-10T19:03:16.776Z,4.80
2019-06-10T19:05:46.717Z,5.90
2019-06-10T19:08:17.025Z,3.40
2019-06-10T19:10:47.338Z,3.97
2019-06-10T19:13:18.615Z,3.10
2019-06-10T19:15:48.106Z,3.50
2019-06-10T19:18:17.833Z,3.40
2019-06-10T19:20:48.015Z,3.77
2019-06-10T19:23:18.023Z,3.80
2019-06-10T19:25:52.551Z,2.90
2019-06-10T19:28:24.403Z,2.80
2019-06-10T19:30:54.184Z,3.20
2019-06-10T19:33:24.467Z,3.40
2019-06-10T19:35:54.531Z,3.07
2019-06-10T19:38:25.586Z,3.97
2019-06-10T19:40:55.657Z,5.17
2019-06-10T19:43:26.443Z,3.30
2019-06-10T19:45:55.976Z,3.50
2019-06-10T19:48:25.800Z,3.50
2019-06-10T19:50:55.955Z,3.23
2019-06-10T19:53:25.686Z,3.37
2019-06-10T19:55:55.843Z,2.97
2019-06-10T19:58:25.823Z,3.40
2019-06-10T20:00:56.146Z,3.30
2019-06-10T20:03:25.863Z,3.33
2019-06-10T20:05:56.880Z,2.90
2019-06-10T20:08:26.995Z,3.17
2019-06-10T20:10:57.451Z,3.53
2019-06-10T20:13:36.451Z,3.23
2019-06-10T20:16:05.992Z,3.53
2019-06-10T20:18:36.240Z,3.23
2019-06-10T20:21:06.285Z,2.90
2019-06-10T20:23:37.387Z,3.00
2019-06-10T20:26:06.957Z,3.43
2019-06-10T20:28:38.923Z,3.30
2019-06-10T20:31:08.960Z,3.67
2019-06-10T20:33:39.879Z,3.60
2019-06-10T20:36:17.866Z,4.90
2019-06-10T20:38:45.359Z,3.50
2019-06-10T20:41:14.129Z,3.40
2019-06-10T20:43:44.393Z,3.03
2019-06-10T20:46:15.435Z,4.00
2019-06-10T20:48:47.770Z,3.30
2019-06-10T20:51:16.671Z,3.17
2019-06-10T20:53:53.315Z,3.90
2019-06-10T20:56:23.448Z,4.03
2019-06-10T20:58:53.045Z,3.30
2019-06-10T21:01:25.057Z,3.70
2019-06-10T21:03:56.248Z,4.67
2019-06-10T21:06:27.185Z,3.20
2019-06-10T21:08:56.560Z,3.90
2019-06-10T21:11:25.986Z,4.03
2019-06-10T21:13:55.986Z,2.53
2019-06-10T21:16:25.518Z,3.27
2019-06-10T21:18:55.853Z,3.47
2019-06-10T21:21:25.291Z,3.47
2019-06-10T21:23:54.613Z,2.90
2019-06-10T21:26:24.029Z,3.10
2019-06-10T21:28:55.181Z,3.23
2019-06-10T21:31:24.922Z,2.70
2019-06-10T21:33:56.129Z,2.70
2019-06-10T21:36:25.534Z,4.13
2019-06-10T21:38:55.879Z,2.53
2019-06-10T21:41:26.341Z,2.70
2019-06-10T21:44:02.792Z,3.30
2019-06-10T21:46:37.456Z,3.17
2019-06-10T21:49:07.710Z,2.70
2019-06-10T21:51:39.006Z,3.50
2019-06-10T21:54:12.060Z,4.93
2019-06-10T21:56:47.081Z,2.43
2019-06-10T21:59:20.995Z,3.20
2019-06-10T22:01:55.457Z,2.50
2019-06-10T22:04:27.969Z,2.73
2019-06-10T22:06:59.116Z,2.30
2019-06-10T22:09:30.000Z,2.53
2019-06-10T22:12:02.899Z,2.20
2019-06-10T22:14:34.394Z,2.60
2019-06-10T22:17:07.610Z,2.30
2019-06-10T22:19:42.603Z,2.50
2019-06-10T22:22:14.439Z,1.90
2019-06-10T22:24:48.823Z,2.07
2019-06-10T22:27:22.715Z,2.20
2019-06-10T22:29:59.286Z,2.00
2019-06-10T22:32:33.098Z,2.27
2019-06-10T22:35:03.789Z,2.00
2019-06-10T22:37:36.399Z,1.80
2019-06-10T22:40:12.259Z,2.23
2019-06-10T22:42:49.329Z,2.00
2019-06-10T22:45:25.501Z,2.27
2019-06-10T22:48:02.760Z,2.73
2019-06-10T22:50:36.688Z,1.90
2019-06-10T22:53:23.013Z,2.13
2019-06-10T22:55:56.168Z,2.60
2019-06-10T22:58:28.248Z,2.17
2019-06-10T23:01:01.057Z,2.33
2019-06-10T23:03:35.299Z,3.47
2019-06-10T23:06:08.590Z,2.70
2019-06-10T23:08:44.369Z,2.60
2019-06-10T23:11:19.261Z,2.23
2019-06-10T23:13:53.353Z,2.63
2019-06-10T23:16:29.263Z,2.37
2019-06-10T23:19:23.269Z,2.43
2019-06-10T23:21:56.814Z,2.47
2019-06-10T23:24:28.452Z,2.23
2019-06-10T23:27:03.026Z,2.40
2019-06-10T23:29:36.048Z,2.53
2019-06-10T23:32:07.734Z,2.57
2019-06-10T23:34:38.307Z,2.13
2019-06-10T23:37:09.073Z,2.27
2019-06-10T23:39:39.464Z,2.40
2019-06-10T23:42:08.744Z,2.43
2019-06-10T23:44:37.966Z,3.03
2019-06-10T23:47:07.525Z,4.47
2019-06-10T23:49:36.744Z,2.67
2019-06-10T23:52:05.989Z,3.10
2019-06-10T23:54:35.218Z,3.33
2019-06-10T23:57:05.927Z,3.10
2019-06-10T23:59:35.453Z,3.13
